createdAt,value
2022-10-17T00:01:01.765Z,7.40
2022-10-17T00:03:58.821Z,7.00
2022-10-17T00:06:56.045Z,7.00
2022-10-17T00:09:53.029Z,6.40
2022-10-17T00:12:51.139Z,8.00
2022-10-17T00:15:48.079Z,8.20
2022-10-17T00:18:45.224Z,9.00
2022-10-17T00:21:41.556Z,6.20
2022-10-17T00:24:38.904Z,5.20
2022-10-17T00:27:37.105Z,3.00
2022-10-17T00:30:34.035Z,4.80
2022-10-17T00:33:31.051Z,5.80
2022-10-17T00:36:28.052Z,7.00
2022-10-17T00:39:25.360Z,6.80
2022-10-17T00:42:25.177Z,6.00
2022-10-17T00:45:29.601Z,7.00
2022-10-17T00:48:27.423Z,6.00
2022-10-17T00:51:35.185Z,7.60
2022-10-17T00:54:34.032Z,7.00
2022-10-17T00:57:31.179Z,6.20
2022-10-17T01:00:27.653Z,7.40
2022-10-17T01:03:25.151Z,4.00
2022-10-17T01:06:22.114Z,6.00
2022-10-17T01:09:18.812Z,6.20
2022-10-17T01:12:27.625Z,6.40
2022-10-17T01:15:39.893Z,4.00
2022-10-17T01:18:52.109Z,7.20
2022-10-17T01:22:28.059Z,5.20
2022-10-17T01:25:55.632Z,6.00
2022-10-17T01:29:17.723Z,6.00
2022-10-17T01:32:33.811Z,6.00
2022-10-17T01:35:41.300Z,4.20
2022-10-17T01:38:47.827Z,4.00
2022-10-17T01:41:47.178Z,4.00
2022-10-17T01:44:46.812Z,3.20
2022-10-17T01:47:43.835Z,3.20
2022-10-17T01:50:43.579Z,4.00
2022-10-17T01:53:44.806Z,5.00
2022-10-17T01:56:41.700Z,4.20
2022-10-17T01:59:42.868Z,5.20
2022-10-17T02:02:41.254Z,4.60
2022-10-17T02:05:41.366Z,5.20
2022-10-17T02:08:48.480Z,7.40
2022-10-17T02:12:04.325Z,7.00
2022-10-17T02:15:40.410Z,5.00
2022-10-17T02:18:51.040Z,7.40
2022-10-17T02:22:10.623Z,5.20
2022-10-17T02:25:19.103Z,8.20
2022-10-17T02:28:21.053Z,8.80
2022-10-17T02:31:27.272Z,9.00
2022-10-17T02:34:29.344Z,7.00
2022-10-17T02:37:27.747Z,8.20
2022-10-17T02:40:24.927Z,10.20
2022-10-17T02:43:22.995Z,8.60
2022-10-17T02:46:22.316Z,8.00
2022-10-17T02:49:24.559Z,7.60
2022-10-17T02:53:07.743Z,9.00
2022-10-17T02:56:09.069Z,7.20
2022-10-17T02:59:06.179Z,8.00
2022-10-17T03:02:06.539Z,6.00
2022-10-17T03:05:04.208Z,6.60
2022-10-17T03:08:01.010Z,8.00
2022-10-17T03:10:58.059Z,7.00
2022-10-17T03:13:56.844Z,7.40
2022-10-17T03:16:53.767Z,8.80
2022-10-17T03:19:51.141Z,8.40
2022-10-17T03:22:48.127Z,7.00
2022-10-17T03:25:45.179Z,7.40
2022-10-17T03:28:44.188Z,6.20
2022-10-17T03:31:42.211Z,6.60
2022-10-17T03:34:40.000Z,6.80
2022-10-17T03:37:37.814Z,7.00
2022-10-17T03:40:35.227Z,10.20
2022-10-17T03:43:31.735Z,7.00
2022-10-17T03:46:29.029Z,8.40
2022-10-17T03:49:31.020Z,7.00
2022-10-17T03:52:27.866Z,5.60
2022-10-17T03:55:26.339Z,7.40
2022-10-17T03:58:23.968Z,9.20
2022-10-17T04:01:22.304Z,9.00
2022-10-17T04:04:20.208Z,7.00
2022-10-17T04:07:17.042Z,6.00
2022-10-17T04:10:15.951Z,9.00
2022-10-17T04:13:13.135Z,6.00
2022-10-17T04:16:18.010Z,7.40
2022-10-17T04:19:22.151Z,8.60
2022-10-17T04:22:20.005Z,8.00
2022-10-17T04:25:16.857Z,8.20
2022-10-17T04:28:17.199Z,9.40
2022-10-17T04:31:14.502Z,9.00
2022-10-17T04:34:31.105Z,9.00
2022-10-17T04:37:29.331Z,7.00
2022-10-17T04:40:27.000Z,7.00
2022-10-17T04:43:24.287Z,8.60
2022-10-17T04:46:22.134Z,7.00
2022-10-17T04:49:19.080Z,8.00
2022-10-17T04:52:19.028Z,7.80
2022-10-17T04:55:19.039Z,9.00
2022-10-17T04:58:16.071Z,7.00
2022-10-17T05:01:15.782Z,6.40
2022-10-17T05:04:15.073Z,5.00
2022-10-17T05:07:13.258Z,9.00
2022-10-17T05:10:13.170Z,6.00
2022-10-17T05:13:13.791Z,8.00
2022-10-17T05:16:11.224Z,6.80
2022-10-17T05:19:08.155Z,6.00
2022-10-17T05:22:13.190Z,6.80
2022-10-17T05:25:12.150Z,5.60
2022-10-17T05:28:09.084Z,6.60
2022-10-17T05:31:08.457Z,6.00
2022-10-17T05:34:08.043Z,13.20
2022-10-17T05:37:08.400Z,10.00
2022-10-17T05:40:06.886Z,8.00
2022-10-17T05:43:04.174Z,4.40
2022-10-17T05:46:06.162Z,15.20
2022-10-17T05:49:14.713Z,7.00
2022-10-17T05:52:20.917Z,9.00
2022-10-17T05:55:29.061Z,8.80
2022-10-17T06:01:57.049Z,8.00
2022-10-17T06:04:53.943Z,8.20
2022-10-17T06:07:57.007Z,6.60
2022-10-17T06:10:57.085Z,6.80
2022-10-17T06:13:54.125Z,4.00
2022-10-17T06:16:55.239Z,9.00
2022-10-17T06:19:52.229Z,5.60
2022-10-17T06:22:49.160Z,8.40
2022-10-17T06:25:54.261Z,8.60
2022-10-17T06:28:50.999Z,7.00
2022-10-17T06:31:48.794Z,8.60
2022-10-17T06:34:46.016Z,5.80
2022-10-17T06:37:43.163Z,8.20
2022-10-17T06:40:40.147Z,7.00
2022-10-17T06:43:37.652Z,6.00
2022-10-17T06:46:53.512Z,6.00
2022-10-17T06:49:52.075Z,4.60
2022-10-17T06:52:55.001Z,8.20
2022-10-17T06:56:19.481Z,8.60
2022-10-17T06:59:37.083Z,5.00
2022-10-17T07:02:40.032Z,5.60
2022-10-17T07:05:37.345Z,7.00
2022-10-17T07:08:34.190Z,7.00
2022-10-17T07:11:33.793Z,3.80
2022-10-17T07:14:32.305Z,4.00
2022-10-17T07:17:31.356Z,7.00
2022-10-17T07:20:29.304Z,4.00
2022-10-17T07:23:26.000Z,5.40
2022-10-17T07:26:24.779Z,4.40
2022-10-17T07:29:22.170Z,4.40
2022-10-17T07:32:35.390Z,4.00
2022-10-17T07:35:33.322Z,5.00
2022-10-17T07:38:31.353Z,5.00
2022-10-17T07:41:28.194Z,6.20
2022-10-17T07:44:25.600Z,5.00
2022-10-17T07:47:23.908Z,4.80
2022-10-17T07:50:22.409Z,2.00
2022-10-17T07:53:19.062Z,5.00
2022-10-17T07:56:16.651Z,4.00
2022-10-17T07:59:14.092Z,4.40
2022-10-17T08:02:24.833Z,4.40
2022-10-17T08:05:22.182Z,3.00
2022-10-17T08:08:19.343Z,3.00
2022-10-17T08:11:16.096Z,3.20
2022-10-17T08:14:13.645Z,4.00
2022-10-17T08:17:11.414Z,3.20
2022-10-17T08:20:08.777Z,2.00
2022-10-17T08:23:06.382Z,3.00
2022-10-17T08:26:05.038Z,2.60
2022-10-17T08:29:02.235Z,3.00
2022-10-17T08:32:01.843Z,3.60
2022-10-17T08:34:59.038Z,3.80
2022-10-17T08:37:58.509Z,3.60
2022-10-17T08:41:00.495Z,2.00
2022-10-17T08:44:03.260Z,3.80
2022-10-17T08:47:01.771Z,2.40
2022-10-17T08:50:00.894Z,3.40
2022-10-17T08:53:09.252Z,4.00
2022-10-17T08:56:19.881Z,4.40
2022-10-17T08:59:28.749Z,2.20
2022-10-17T09:02:38.011Z,3.00
2022-10-17T09:05:42.324Z,2.00
2022-10-17T09:08:55.147Z,3.00
2022-10-17T09:11:59.010Z,3.00
2022-10-17T09:15:02.123Z,3.00
2022-10-17T09:18:22.290Z,3.00
2022-10-17T09:21:27.171Z,3.20
2022-10-17T09:24:41.383Z,2.00
2022-10-17T09:27:46.976Z,3.00
2022-10-17T09:30:46.720Z,2.00
2022-10-17T09:34:00.731Z,3.00
2022-10-17T09:36:59.577Z,2.00
2022-10-17T09:39:56.466Z,2.00
2022-10-17T09:42:53.632Z,2.00
2022-10-17T09:46:06.645Z,3.00
2022-10-17T09:49:17.251Z,4.00
2022-10-17T09:52:18.382Z,1.00
2022-10-17T09:55:19.292Z,2.00
2022-10-17T09:58:16.589Z,1.00
2022-10-17T10:01:24.548Z,2.00
2022-10-17T10:04:22.329Z,2.00
2022-10-17T10:07:21.479Z,1.40
2022-10-17T10:10:27.647Z,3.00
2022-10-17T10:13:26.263Z,3.40
2022-10-17T10:16:31.963Z,2.00
2022-10-17T10:19:31.670Z,2.80
2022-10-17T10:22:28.673Z,3.00
2022-10-17T10:25:26.536Z,2.00
2022-10-17T10:28:28.962Z,2.00
2022-10-17T10:31:28.825Z,2.00
2022-10-17T10:34:28.980Z,2.60
2022-10-17T10:37:30.954Z,4.00
2022-10-17T10:40:32.961Z,2.40
2022-10-17T10:43:35.534Z,2.20
2022-10-17T10:46:32.453Z,3.00
2022-10-17T10:49:30.868Z,2.80
2022-10-17T10:52:34.509Z,1.60
2022-10-17T10:55:35.031Z,3.60
2022-10-17T10:59:06.029Z,3.00
2022-10-17T11:02:20.538Z,3.00
2022-10-17T11:05:42.558Z,2.20
2022-10-17T11:08:42.216Z,4.00
2022-10-17T11:11:45.222Z,3.00
2022-10-17T11:15:04.080Z,3.00
2022-10-17T11:18:03.176Z,3.80
2022-10-17T11:21:11.813Z,4.20
2022-10-17T11:24:23.933Z,4.00
2022-10-17T11:27:21.447Z,4.00
2022-10-17T11:30:18.414Z,6.00
2022-10-17T11:33:41.140Z,1.80
2022-10-17T11:36:40.295Z,3.20
2022-10-17T11:40:30.784Z,4.00
2022-10-17T11:43:34.474Z,5.00
2022-10-17T11:46:31.417Z,4.40
2022-10-17T11:49:40.514Z,3.20
2022-10-17T11:52:55.991Z,3.40
2022-10-17T11:55:54.711Z,3.00
2022-10-17T11:59:17.341Z,5.20
2022-10-17T12:02:29.454Z,4.00
2022-10-17T12:05:55.618Z,4.00
2022-10-17T12:09:01.240Z,3.80
2022-10-17T12:12:00.079Z,4.40
2022-10-17T12:15:25.456Z,3.00
2022-10-17T12:18:25.106Z,3.00
2022-10-17T12:21:22.556Z,5.20
2022-10-17T12:24:31.407Z,4.00
2022-10-17T12:27:46.042Z,5.60
2022-10-17T12:30:51.548Z,5.00
2022-10-17T12:34:16.250Z,5.00
2022-10-17T12:37:15.133Z,5.00
2022-10-17T12:40:37.456Z,3.60
2022-10-17T12:43:43.951Z,4.00
2022-10-17T12:46:44.424Z,5.00
2022-10-17T12:49:45.746Z,3.20
2022-10-17T12:52:42.570Z,4.40
2022-10-17T12:55:39.716Z,2.60
2022-10-17T12:58:36.546Z,4.00
2022-10-17T13:01:34.387Z,3.60
2022-10-17T13:04:31.544Z,4.00
2022-10-17T13:07:28.546Z,4.80
2022-10-17T13:10:29.257Z,3.40
2022-10-17T13:13:35.839Z,3.00
2022-10-17T13:16:51.684Z,3.00
2022-10-17T13:19:48.824Z,4.40
2022-10-17T13:22:45.545Z,3.00
2022-10-17T13:25:42.990Z,4.00
2022-10-17T13:28:40.875Z,3.40
2022-10-17T13:31:40.637Z,3.00
2022-10-17T13:34:37.732Z,2.60
2022-10-17T13:37:35.508Z,3.60
2022-10-17T13:40:48.406Z,5.00
2022-10-17T13:43:47.429Z,3.20
2022-10-17T13:46:45.077Z,4.00
2022-10-17T13:49:43.032Z,4.00
2022-10-17T13:52:40.423Z,4.00
2022-10-17T13:55:37.574Z,3.00
2022-10-17T13:58:45.808Z,3.00
2022-10-17T14:01:42.500Z,4.00
2022-10-17T14:05:04.099Z,3.20
2022-10-17T14:08:11.230Z,4.60
2022-10-17T14:11:24.154Z,4.20
2022-10-17T14:14:23.555Z,4.00
2022-10-17T14:17:29.015Z,4.00
2022-10-17T14:23:46.731Z,3.40
2022-10-17T14:26:48.333Z,5.00
2022-10-17T14:29:52.988Z,5.80
2022-10-17T14:32:50.329Z,4.00
2022-10-17T14:35:51.781Z,5.00
2022-10-17T14:38:51.268Z,5.00
2022-10-17T14:41:48.769Z,4.40
2022-10-17T14:44:50.980Z,4.40
2022-10-17T14:47:50.104Z,5.80
2022-10-17T14:51:06.014Z,5.00
2022-10-17T14:54:35.024Z,5.00
2022-10-17T14:57:32.530Z,4.20
2022-10-17T15:00:29.642Z,5.00
2022-10-17T15:03:26.807Z,6.00
2022-10-17T15:06:29.636Z,6.00
2022-10-17T15:09:29.258Z,4.60
2022-10-17T15:12:26.777Z,2.00
2022-10-17T15:15:23.773Z,4.00
2022-10-17T15:18:20.866Z,5.20
2022-10-17T15:21:33.304Z,5.00
2022-10-17T15:24:34.686Z,6.20
2022-10-17T15:27:32.727Z,6.00
2022-10-17T15:30:32.892Z,6.00
2022-10-17T15:33:29.531Z,5.00
2022-10-17T15:36:29.052Z,5.80
2022-10-17T15:39:26.476Z,7.00
2022-10-17T15:42:28.083Z,8.00
2022-10-17T15:45:25.884Z,5.20
2022-10-17T15:48:28.019Z,5.20
2022-10-17T15:51:25.478Z,5.00
2022-10-17T15:54:22.464Z,6.20
2022-10-17T15:57:27.986Z,6.20
2022-10-17T16:00:25.532Z,7.00
2022-10-17T16:06:24.732Z,8.80
2022-10-17T16:09:21.655Z,6.20
2022-10-17T16:15:22.982Z,6.80
2022-10-17T16:18:20.215Z,7.00
2022-10-17T16:21:18.081Z,7.20
2022-10-17T16:24:15.869Z,5.40
2022-10-17T16:27:13.075Z,4.60
2022-10-17T16:30:10.613Z,4.80
2022-10-17T16:33:07.733Z,3.20
2022-10-17T16:36:04.601Z,4.40
2022-10-17T16:39:01.712Z,9.00
2022-10-17T16:41:58.900Z,4.60
2022-10-17T16:44:55.960Z,9.00
2022-10-17T16:47:53.389Z,6.20
2022-10-17T16:50:50.650Z,7.40
2022-10-17T16:53:50.270Z,9.00
2022-10-17T16:56:47.770Z,9.20
2022-10-17T16:59:44.635Z,10.40
2022-10-17T17:02:41.672Z,7.20
2022-10-17T17:05:38.785Z,9.00
2022-10-17T17:08:37.350Z,7.20
2022-10-17T17:11:34.490Z,7.60
2022-10-17T17:14:31.941Z,8.20
2022-10-17T17:17:37.319Z,6.00
2022-10-17T17:20:45.726Z,6.40
2022-10-17T17:23:43.319Z,6.00
2022-10-17T17:26:41.806Z,8.60
2022-10-17T17:29:40.808Z,5.00
2022-10-17T17:32:38.092Z,6.80
2022-10-17T17:35:35.393Z,7.80
2022-10-17T17:38:34.061Z,7.00
2022-10-17T17:41:32.140Z,4.40
2022-10-17T17:44:29.853Z,6.40
2022-10-17T17:47:29.206Z,2.80
2022-10-17T17:50:26.912Z,7.40
2022-10-17T17:53:23.813Z,5.40
2022-10-17T17:56:28.761Z,8.00
2022-10-17T17:59:26.107Z,5.00
2022-10-17T18:02:23.760Z,6.80
2022-10-17T18:05:20.895Z,5.20
2022-10-17T18:08:17.949Z,7.00
2022-10-17T18:11:17.173Z,8.20
2022-10-17T18:14:19.113Z,8.40
2022-10-17T18:17:15.596Z,9.00
2022-10-17T18:20:13.037Z,10.00
2022-10-17T18:23:10.525Z,5.20
2022-10-17T18:26:07.858Z,8.20
2022-10-17T18:29:04.801Z,9.40
2022-10-17T18:32:01.987Z,5.40
2022-10-17T18:34:58.761Z,9.20
2022-10-17T18:37:57.110Z,10.00
2022-10-17T18:41:02.945Z,9.40
2022-10-17T18:43:59.765Z,9.40
2022-10-17T18:46:59.893Z,12.60
2022-10-17T18:50:01.181Z,10.00
2022-10-17T18:52:58.520Z,10.80
2022-10-17T18:55:56.226Z,10.00
2022-10-17T18:58:53.877Z,9.80
2022-10-17T19:01:51.225Z,7.20
2022-10-17T19:07:47.351Z,9.00
2022-10-17T19:10:44.880Z,11.00
2022-10-17T19:13:42.267Z,8.00
2022-10-17T19:16:45.358Z,11.40
2022-10-17T19:19:43.261Z,11.20
2022-10-17T19:22:40.665Z,9.00
2022-10-17T19:25:38.048Z,11.00
2022-10-17T19:28:35.075Z,11.80
2022-10-17T19:31:32.733Z,11.00
2022-10-17T19:34:30.151Z,11.80
2022-10-17T19:37:26.900Z,10.00
2022-10-17T19:40:23.773Z,12.00
2022-10-17T19:43:20.927Z,10.00
2022-10-17T19:46:19.257Z,14.00
2022-10-17T19:49:17.148Z,12.00
2022-10-17T19:52:14.881Z,11.60
2022-10-17T19:55:11.747Z,11.40
2022-10-17T19:58:08.735Z,11.00
2022-10-17T20:01:05.927Z,13.00
2022-10-17T20:04:03.154Z,9.40
2022-10-17T20:07:01.422Z,11.20
2022-10-17T20:09:58.717Z,11.40
2022-10-17T20:12:55.907Z,10.00
2022-10-17T20:15:56.760Z,11.80
2022-10-17T20:18:55.829Z,11.60
2022-10-17T20:21:53.004Z,11.80
2022-10-17T20:24:50.041Z,13.20
2022-10-17T20:27:46.576Z,11.20
2022-10-17T20:30:45.670Z,11.20
2022-10-17T20:33:43.067Z,9.00
2022-10-17T20:36:40.091Z,11.60
2022-10-17T20:39:36.839Z,10.40
2022-10-17T20:42:33.943Z,9.80
2022-10-17T20:45:44.255Z,11.20
2022-10-17T20:48:55.102Z,11.00
2022-10-17T20:51:51.931Z,15.80
2022-10-17T20:54:48.789Z,9.20
2022-10-17T20:57:45.841Z,13.00
2022-10-17T21:00:42.909Z,13.60
2022-10-17T21:03:43.840Z,10.00
2022-10-17T21:06:48.227Z,11.00
2022-10-17T21:09:46.377Z,12.00
2022-10-17T21:12:53.875Z,11.60
2022-10-17T21:15:52.145Z,12.80
2022-10-17T21:18:49.488Z,10.60
2022-10-17T21:21:46.909Z,10.40
2022-10-17T21:24:43.719Z,8.60
2022-10-17T21:27:41.173Z,12.00
2022-10-17T21:30:37.978Z,10.60
2022-10-17T21:33:34.978Z,11.00
2022-10-17T21:36:31.694Z,10.80
2022-10-17T21:39:28.748Z,11.00
2022-10-17T21:42:25.684Z,11.00
2022-10-17T21:45:25.979Z,11.00
2022-10-17T21:48:23.123Z,10.00
2022-10-17T21:51:25.118Z,9.40
2022-10-17T21:54:23.071Z,10.80
2022-10-17T21:57:20.235Z,11.00
2022-10-17T22:00:17.151Z,11.40
2022-10-17T22:03:15.222Z,9.40
2022-10-17T22:06:41.747Z,8.00
2022-10-17T22:09:30.215Z,12.00
2022-10-17T22:12:27.145Z,10.00
2022-10-17T22:15:24.078Z,11.00
2022-10-17T22:18:20.820Z,10.60
2022-10-17T22:21:20.121Z,9.60
2022-10-17T22:24:18.064Z,10.00
2022-10-17T22:27:14.790Z,9.00
2022-10-17T22:30:12.230Z,9.60
2022-10-17T22:33:09.093Z,10.20
2022-10-17T22:36:07.077Z,10.00
2022-10-17T22:39:03.922Z,9.80
2022-10-17T22:42:01.085Z,10.40
2022-10-17T22:44:58.066Z,10.80
2022-10-17T22:47:54.925Z,10.00
2022-10-17T22:50:52.470Z,11.80
2022-10-17T22:53:49.817Z,11.00
2022-10-17T22:56:46.859Z,11.60
2022-10-17T22:59:43.894Z,13.00
2022-10-17T23:02:40.665Z,16.20
2022-10-17T23:05:38.127Z,13.00
2022-10-17T23:08:35.204Z,14.20
2022-10-17T23:11:31.999Z,9.60
2022-10-17T23:14:28.969Z,10.00
2022-10-17T23:17:26.146Z,12.20
2022-10-17T23:20:23.054Z,10.40
2022-10-17T23:23:20.352Z,14.00
2022-10-17T23:26:16.825Z,10.00
2022-10-17T23:29:13.908Z,10.00
2022-10-17T23:32:10.975Z,14.00
2022-10-17T23:35:08.642Z,15.00
2022-10-17T23:38:06.202Z,12.20
2022-10-17T23:41:02.986Z,12.80
2022-10-17T23:43:59.971Z,12.20
2022-10-17T23:46:57.008Z,10.80
2022-10-17T23:49:53.849Z,12.80
2022-10-17T23:52:50.981Z,11.00
2022-10-17T23:55:47.998Z,9.00
2022-10-17T23:58:45.285Z,9.40
